Time;durP1;ratioP1;P1;durP2;ratioP2;P2;SDS_P1;SDS_P2;PMS_P1;PMS_P2;Temp;Humidity;BMP_temperature;BMP_pressure;BME280_temperature;BME280_humidity;BME280_pressure;Samples;Min_cycle;Max_cycle;Signal;HPM_P1;HPM_P2
2022/01/30 00:00:51;;;;;;;10.98;5.82;;;4.80;99.90;;;;;;5016714;28;20048;-66
2022/01/30 00:03:18;;;;;;;7.03;4.57;;;4.80;99.90;;;;;;5006209;28;20141;-66
2022/01/30 00:05:46;;;;;;;10.02;6.40;;;4.80;99.90;;;;;;4995780;28;20161;-66
2022/01/30 00:08:13;;;;;;;8.85;5.18;;;4.80;99.90;;;;;;4996551;28;20142;-66
2022/01/30 00:10:41;;;;;;;6.57;4.28;;;4.80;99.90;;;;;;4997419;28;20352;-66
2022/01/30 00:13:11;;;;;;;7.63;4.80;;;4.80;99.90;;;;;;4997531;28;20041;-66
2022/01/30 00:15:51;;;;;;;8.43;5.03;;;4.70;99.90;;;;;;4996031;28;20057;-66
2022/01/30 00:20:58;;;;;;;6.38;3.47;;;4.70;99.90;;;;;;5017445;28;20033;-66
2022/01/30 00:23:27;;;;;;;5.43;3.88;;;4.70;99.90;;;;;;5018699;28;20147;-66
2022/01/30 00:25:54;;;;;;;13.70;4.20;;;4.70;99.90;;;;;;5018396;28;20041;-66
2022/01/30 00:28:24;;;;;;;6.10;3.63;;;4.70;99.90;;;;;;5018693;28;20347;-66
2022/01/30 00:30:53;;;;;;;5.40;3.13;;;4.70;99.90;;;;;;5017916;28;20040;-65
2022/01/30 00:33:20;;;;;;;8.02;3.13;;;4.70;99.90;;;;;;5019104;28;20040;-66
2022/01/30 00:35:49;;;;;;;4.20;3.00;;;4.80;99.90;;;;;;5017930;28;20143;-66
2022/01/30 00:38:19;;;;;;;2.88;2.33;;;4.80;99.90;;;;;;5015856;28;20059;-66
2022/01/30 00:40:48;;;;;;;2.72;2.40;;;4.80;99.90;;;;;;5016079;28;20075;-66
2022/01/30 00:43:18;;;;;;;3.47;2.60;;;4.80;99.90;;;;;;5018214;28;20045;-66
2022/01/30 00:45:46;;;;;;;4.90;2.17;;;4.80;99.90;;;;;;4998583;28;20044;-66
2022/01/30 00:48:15;;;;;;;3.25;2.17;;;4.80;99.90;;;;;;5018484;28;20397;-66
2022/01/30 00:50:42;;;;;;;3.10;2.40;;;4.70;99.90;;;;;;5014466;28;20045;-67
2022/01/30 00:53:10;;;;;;;3.33;2.63;;;4.70;99.90;;;;;;5015158;28;20060;-66
2022/01/30 00:55:37;;;;;;;3.05;2.13;;;4.70;99.90;;;;;;5018742;28;20947;-66
2022/01/30 00:58:04;;;;;;;2.97;2.35;;;4.70;99.90;;;;;;5016895;28;20064;-65
2022/01/30 01:00:32;;;;;;;2.70;1.55;;;4.60;99.90;;;;;;5015910;28;20155;-66
2022/01/30 01:03:00;;;;;;;5.82;2.78;;;4.60;99.90;;;;;;5016308;28;20043;-66
2022/01/30 01:05:29;;;;;;;2.65;1.98;;;4.60;99.90;;;;;;5001450;28;20452;-66
2022/01/30 01:07:59;;;;;;;3.15;2.22;;;4.60;99.90;;;;;;5018865;28;20143;-66
2022/01/30 01:23:52;;;;;;;4.75;2.97;;;4.50;99.90;;;;;;5021026;28;20429;-66
2022/01/30 01:26:21;;;;;;;3.97;2.47;;;4.50;99.90;;;;;;5019781;28;20114;-66
2022/01/30 01:28:51;;;;;;;4.07;2.47;;;4.50;99.90;;;;;;5021537;28;20939;-66
2022/01/30 01:31:18;;;;;;;4.03;2.67;;;4.50;99.90;;;;;;5021592;28;20059;-66
2022/01/30 01:36:25;;;;;;;3.92;2.60;;;4.50;99.90;;;;;;5018568;28;20513;-66
2022/01/30 01:38:52;;;;;;;4.50;2.80;;;4.50;99.90;;;;;;5021381;28;20059;-66
2022/01/30 01:41:21;;;;;;;3.65;2.20;;;4.50;99.90;;;;;;5020898;28;20047;-66
2022/01/30 01:43:49;;;;;;;4.05;2.83;;;4.50;99.90;;;;;;5021377;28;20059;-66
2022/01/30 01:46:23;;;;;;;5.30;2.58;;;4.50;99.90;;;;;;5020836;28;20443;-66
2022/01/30 01:48:52;;;;;;;3.45;2.38;;;4.50;99.90;;;;;;5019525;28;20037;-66
2022/01/30 01:51:31;;;;;;;4.97;3.20;;;4.60;99.90;;;;;;5021246;28;20040;-66
2022/01/30 01:53:59;;;;;;;3.50;2.65;;;4.60;99.90;;;;;;5017662;28;20478;-66
2022/01/30 01:56:28;;;;;;;3.15;2.58;;;4.60;99.90;;;;;;5021299;28;20282;-66
2022/01/30 01:59:16;;;;;;;4.22;3.05;;;4.50;99.90;;;;;;5017274;28;20048;-67
2022/01/30 02:02:03;;;;;;;3.92;2.88;;;4.50;99.90;;;;;;5020181;28;20374;-66
2022/01/30 02:04:30;;;;;;;8.98;3.10;;;4.60;99.90;;;;;;5017812;28;20554;-66
2022/01/30 02:07:21;;;;;;;3.92;3.15;;;4.60;99.90;;;;;;5002737;28;20274;-66
2022/01/30 02:09:47;;;;;;;5.30;3.33;;;4.60;99.90;;;;;;5019425;28;20067;-66
2022/01/30 02:12:19;;;;;;;8.43;3.10;;;4.60;99.90;;;;;;5020429;28;20072;-66
2022/01/30 02:25:45;;;;;;;4.60;2.83;;;4.50;99.90;;;;;;5018134;28;20044;-66
2022/01/30 02:28:16;;;;;;;6.50;3.63;;;4.50;99.90;;;;;;5021268;28;20040;-66
2022/01/30 02:30:54;;;;;;;4.47;3.05;;;4.50;99.90;;;;;;5019550;28;20041;-66
2022/01/30 02:33:22;;;;;;;4.17;3.00;;;4.50;99.90;;;;;;5019300;28;20159;-66
2022/01/30 02:35:49;;;;;;;3.67;2.90;;;4.50;99.90;;;;;;5020797;28;20075;-66
2022/01/30 02:38:19;;;;;;;4.45;2.90;;;4.50;99.90;;;;;;5018523;28;20044;-66
2022/01/30 02:40:48;;;;;;;3.20;2.90;;;4.40;99.90;;;;;;5017986;28;20055;-66
2022/01/30 02:43:19;;;;;;;4.90;3.72;;;4.40;99.90;;;;;;5018677;28;20160;-66
2022/01/30 02:46:03;;;;;;;8.40;3.67;;;4.40;99.90;;;;;;5018254;28;20045;-66
2022/01/30 02:48:52;;;;;;;5.38;2.97;;;4.40;99.90;;;;;;5019881;28;20103;-66
2022/01/30 02:51:22;;;;;;;3.53;2.67;;;4.40;99.90;;;;;;5020128;28;20398;-66
2022/01/30 02:54:03;;;;;;;2.83;2.33;;;4.40;99.90;;;;;;5017523;28;20133;-66
2022/01/30 02:56:35;;;;;;;4.10;2.70;;;4.40;99.90;;;;;;5017528;28;20307;-66
2022/01/30 02:59:02;;;;;;;3.45;2.72;;;4.40;99.90;;;;;;5016749;28;20044;-66
2022/01/30 03:01:29;;;;;;;4.75;3.08;;;4.40;99.90;;;;;;5017061;28;20147;-66
2022/01/30 03:03:57;;;;;;;4.28;2.60;;;4.30;99.90;;;;;;5018094;28;20126;-66
2022/01/30 03:06:24;;;;;;;3.92;2.80;;;4.30;99.90;;;;;;5013483;28;20040;-66
2022/01/30 03:08:51;;;;;;;2.28;2.03;;;4.30;99.90;;;;;;5009630;28;20048;-66
2022/01/30 03:11:19;;;;;;;3.28;2.20;;;4.30;99.90;;;;;;5016150;28;20040;-67
2022/01/30 03:13:46;;;;;;;3.50;2.65;;;4.30;99.90;;;;;;5019309;28;20067;-67
2022/01/30 03:16:13;;;;;;;2.70;2.15;;;4.30;99.90;;;;;;5018444;28;20259;-67
2022/01/30 03:18:41;;;;;;;2.58;2.10;;;4.20;99.90;;;;;;5019161;28;20079;-67
2022/01/30 03:21:08;;;;;;;4.00;2.50;;;4.20;99.90;;;;;;5018363;28;20051;-66
2022/01/30 03:23:38;;;;;;;3.22;1.95;;;4.20;99.90;;;;;;5016628;28;20045;-67
2022/01/30 03:26:07;;;;;;;3.75;2.30;;;4.20;99.90;;;;;;5019449;28;20032;-67
2022/01/30 03:29:06;;;;;;;2.10;1.90;;;4.20;99.90;;;;;;4979386;28;20049;-67
2022/01/30 03:31:41;;;;;;;3.05;1.88;;;4.30;99.90;;;;;;5016070;28;20379;-67
2022/01/30 03:34:11;;;;;;;2.88;1.92;;;4.30;99.90;;;;;;5016399;28;20599;-67
2022/01/30 03:36:47;;;;;;;3.25;2.30;;;4.20;99.90;;;;;;5016880;28;20052;-67
2022/01/30 03:39:15;;;;;;;3.13;2.00;;;4.20;99.90;;;;;;5017490;28;20048;-67
2022/01/30 03:41:42;;;;;;;3.65;2.25;;;4.20;99.90;;;;;;5016253;28;20048;-67
2022/01/30 03:44:13;;;;;;;2.20;1.73;;;4.20;99.90;;;;;;5017275;28;20174;-68
2022/01/30 03:46:40;;;;;;;3.10;2.28;;;4.30;99.90;;;;;;5018175;28;20041;-66
2022/01/30 03:49:26;;;;;;;2.58;1.90;;;4.30;99.90;;;;;;5017909;28;20157;-67
2022/01/30 03:51:53;;;;;;;1.83;1.48;;;4.30;99.90;;;;;;5019834;28;20048;-66
2022/01/30 03:54:26;;;;;;;4.63;2.45;;;4.30;99.90;;;;;;5015258;28;20044;-66
2022/01/30 03:56:53;;;;;;;3.60;1.92;;;4.20;99.90;;;;;;5012531;28;20058;-67
2022/01/30 03:59:25;;;;;;;1.48;1.35;;;4.20;99.90;;;;;;5016208;28;20325;-67
2022/01/30 04:01:51;;;;;;;;;;;4.20;99.90;;;;;;5013053;28;20064;-67
2022/01/30 04:04:21;;;;;;;1.70;1.55;;;4.10;99.90;;;;;;5016302;28;20297;-67
2022/01/30 04:06:49;;;;;;;1.83;1.48;;;4.20;99.90;;;;;;5014875;28;20041;-67
2022/01/30 04:09:35;;;;;;;2.13;1.50;;;4.10;99.90;;;;;;4996416;28;20064;-67
2022/01/30 04:12:38;;;;;;;1.42;1.33;;;4.10;99.90;;;;;;4992906;28;20079;-67
2022/01/30 04:15:40;;;;;;;2.22;1.17;;;4.10;99.90;;;;;;4935835;28;20652;-67
2022/01/30 04:18:26;;;;;;;0.73;0.73;;;4.20;99.90;;;;;;5003139;28;20599;-67
2022/01/30 04:21:16;;;;;;;0.75;0.75;;;4.20;99.90;;;;;;5008073;28;20056;-67
2022/01/30 04:24:14;;;;;;;0.80;0.70;;;4.20;99.90;;;;;;5004167;28;20601;-67
2022/01/30 04:27:11;;;;;;;1.13;1.00;;;4.30;99.90;;;;;;5015442;28;20163;-67
2022/01/30 04:29:57;;;;;;;1.42;1.10;;;4.30;99.90;;;;;;5017718;28;20059;-67
2022/01/30 04:32:42;;;;;;;1.25;0.90;;;4.40;99.90;;;;;;5015930;28;20048;-66
2022/01/30 04:35:26;;;;;;;0.60;0.60;;;4.40;99.90;;;;;;5017637;28;20045;-67
2022/01/30 04:41:18;;;;;;;1.05;0.80;;;4.30;99.90;;;;;;5016065;28;20800;-67
2022/01/30 04:53:35;;;;;;;0.57;0.57;;;4.30;99.90;;;;;;4997623;28;20488;-67
2022/01/30 05:08:37;;;;;;;;;;;4.30;99.90;;;;;;4982072;28;20671;-67
2022/01/30 05:11:27;;;;;;;2.25;1.10;;;4.30;99.90;;;;;;4999462;28;20453;-68
2022/01/30 05:14:21;;;;;;;0.85;0.85;;;4.30;99.90;;;;;;4999677;28;20052;-67
2022/01/30 05:17:20;;;;;;;0.80;0.80;;;4.30;99.90;;;;;;4968879;28;20099;-67
2022/01/30 05:20:07;;;;;;;1.10;1.00;;;4.30;99.90;;;;;;5018720;28;20063;-67
2022/01/30 05:22:50;;;;;;;1.20;0.80;;;4.40;99.90;;;;;;5004984;28;20204;-67
2022/01/30 05:25:46;;;;;;;0.70;0.70;;;4.30;99.90;;;;;;5019252;28;20558;-67
2022/01/30 05:28:15;;;;;;;1.23;1.02;;;4.40;99.90;;;;;;5018671;28;20135;-67
2022/01/30 05:30:48;;;;;;;1.42;1.23;;;4.40;99.90;;;;;;5020174;28;20041;-66
2022/01/30 05:33:39;;;;;;;1.20;1.10;;;4.40;99.90;;;;;;4999534;28;20597;-66
2022/01/30 05:36:30;;;;;;;3.53;1.05;;;4.30;99.90;;;;;;5019173;28;20101;-66
2022/01/30 05:39:32;;;;;;;1.50;1.10;;;4.30;99.90;;;;;;4977235;28;20053;-67
2022/01/30 05:42:25;;;;;;;2.88;1.10;;;4.30;99.90;;;;;;5010118;28;20759;-67
2022/01/30 05:45:29;;;;;;;1.38;1.27;;;4.30;99.90;;;;;;5020285;28;20064;-66
2022/01/30 05:48:15;;;;;;;2.10;1.63;;;4.30;99.90;;;;;;5017603;28;20615;-65
2022/01/30 05:50:56;;;;;;;2.53;1.90;;;4.30;99.90;;;;;;5017817;28;20036;-66
2022/01/30 05:53:32;;;;;;;2.22;1.85;;;4.30;99.90;;;;;;5003114;28;20661;-67
2022/01/30 05:56:05;;;;;;;3.75;1.48;;;4.30;99.90;;;;;;5020129;28;20675;-63
2022/01/30 05:58:32;;;;;;;2.05;1.70;;;4.30;99.90;;;;;;5018488;28;20581;-63
2022/01/30 06:01:21;;;;;;;2.53;2.00;;;4.30;99.90;;;;;;5017642;28;20756;-63
2022/01/30 06:03:48;;;;;;;2.05;1.85;;;4.30;99.90;;;;;;5019178;28;20044;-62
2022/01/30 06:06:15;;;;;;;2.53;1.80;;;4.30;99.90;;;;;;5020646;28;20047;-63
2022/01/30 06:11:11;;;;;;;2.70;1.60;;;4.30;99.90;;;;;;5001833;28;20037;-62
2022/01/30 06:13:38;;;;;;;1.67;1.40;;;4.40;99.90;;;;;;4998109;28;20479;-63
2022/01/30 06:16:05;;;;;;;1.55;1.45;;;4.30;99.90;;;;;;4998070;28;20612;-63
2022/01/30 06:18:32;;;;;;;2.53;1.75;;;4.30;99.90;;;;;;5010413;28;20044;-63
2022/01/30 06:21:09;;;;;;;3.08;1.75;;;4.30;99.90;;;;;;5018927;28;20597;-63
2022/01/30 06:24:15;;;;;;;3.38;1.48;;;4.30;99.90;;;;;;4977158;28;20049;-63
2022/01/30 06:27:01;;;;;;;1.40;1.30;;;4.30;99.90;;;;;;4975881;28;20152;-62
2022/01/30 06:29:47;;;;;;;1.48;1.38;;;4.30;99.90;;;;;;5007096;28;20055;-63
2022/01/30 06:32:40;;;;;;;2.53;1.50;;;4.30;99.90;;;;;;5019472;28;20048;-63
2022/01/30 06:35:27;;;;;;;2.13;1.40;;;4.30;99.90;;;;;;5019292;28;20205;-63
2022/01/30 06:38:18;;;;;;;1.30;1.20;;;4.20;99.90;;;;;;5017734;28;20086;-62
2022/01/30 06:41:05;;;;;;;1.17;1.17;;;4.20;99.90;;;;;;5017981;28;20860;-62
2022/01/30 06:43:52;;;;;;;3.13;1.90;;;4.20;99.90;;;;;;5018511;28;20063;-63
2022/01/30 06:46:38;;;;;;;2.25;1.50;;;4.20;99.90;;;;;;5018525;28;20281;-63
2022/01/30 06:49:24;;;;;;;1.63;1.23;;;4.10;99.90;;;;;;5018658;28;20075;-63
2022/01/30 06:52:11;;;;;;;5.30;1.42;;;4.10;99.90;;;;;;5018920;28;20090;-63
2022/01/30 06:54:57;;;;;;;1.58;1.48;;;4.00;99.90;;;;;;5019309;28;20646;-67
2022/01/30 06:57:44;;;;;;;1.50;1.40;;;3.90;99.90;;;;;;5019424;28;20067;-67
2022/01/30 07:00:30;;;;;;;1.60;1.50;;;3.90;99.90;;;;;;5017861;28;20252;-67
2022/01/30 07:03:17;;;;;;;1.17;1.08;;;3.90;99.90;;;;;;5017638;28;20051;-67
2022/01/30 07:06:03;;;;;;;1.65;1.45;;;3.90;99.90;;;;;;5016903;28;20044;-67
2022/01/30 07:08:37;;;;;;;1.50;1.38;;;3.90;99.90;;;;;;5017035;28;20040;-67
2022/01/30 07:11:04;;;;;;;1.42;1.25;;;3.80;99.90;;;;;;5006037;28;20119;-67
2022/01/30 07:13:31;;;;;;;2.92;1.50;;;3.80;99.90;;;;;;5001005;28;20368;-67
2022/01/30 07:15:58;;;;;;;3.60;1.80;;;3.80;99.90;;;;;;4997523;28;20041;-67
2022/01/30 07:18:25;;;;;;;1.90;1.45;;;3.80;99.90;;;;;;5010181;28;20205;-67
2022/01/30 07:20:54;;;;;;;2.80;2.20;;;3.80;99.90;;;;;;4999851;28;20036;-67
2022/01/30 07:23:21;;;;;;;2.10;1.90;;;3.80;99.90;;;;;;5016099;28;20036;-66
2022/01/30 07:25:48;;;;;;;1.95;1.63;;;3.90;99.90;;;;;;5018644;28;20051;-66
2022/01/30 07:28:15;;;;;;;2.15;1.48;;;3.90;99.90;;;;;;5018518;28;20032;-67
2022/01/30 07:30:42;;;;;;;2.50;2.20;;;3.90;99.90;;;;;;5015803;28;20045;-67
2022/01/30 07:33:09;;;;;;;2.22;1.95;;;4.00;99.90;;;;;;5017043;28;20122;-67
2022/01/30 07:35:39;;;;;;;4.25;2.10;;;3.90;99.90;;;;;;5017610;28;20137;-66
2022/01/30 07:38:06;;;;;;;4.25;2.83;;;4.00;99.90;;;;;;5019769;28;20210;-67
2022/01/30 07:40:33;;;;;;;6.13;3.00;;;4.00;99.90;;;;;;5017214;28;20044;-67
2022/01/30 07:43:01;;;;;;;3.15;2.60;;;4.00;99.90;;;;;;5019033;28;20588;-59
2022/01/30 07:45:29;;;;;;;3.25;2.42;;;4.00;99.90;;;;;;5016022;28;20572;-59
2022/01/30 07:47:57;;;;;;;2.85;2.53;;;4.10;99.90;;;;;;5018911;28;20052;-59
2022/01/30 07:50:24;;;;;;;;;;;4.10;99.90;;;;;;5019261;28;20033;-58
2022/01/30 07:52:51;;;;;;;3.03;2.08;;;4.20;99.90;;;;;;5018436;28;19920;-59
2022/01/30 07:55:19;;;;;;;2.50;2.15;;;4.20;99.90;;;;;;5017733;28;20066;-59
2022/01/30 07:57:47;;;;;;;2.50;2.28;;;4.30;99.90;;;;;;5019427;28;20051;-59
2022/01/30 08:00:14;;;;;;;3.20;2.90;;;4.30;99.90;;;;;;5015082;28;20040;-59
2022/01/30 08:02:42;;;;;;;4.15;2.90;;;4.30;99.90;;;;;;5018531;28;20032;-60
2022/01/30 08:05:09;;;;;;;2.58;2.30;;;4.30;99.90;;;;;;5018270;28;20040;-59
2022/01/30 08:07:37;;;;;;;3.67;2.90;;;4.30;99.90;;;;;;5016107;28;20036;-59
2022/01/30 08:10:04;;;;;;;3.88;2.42;;;4.30;99.90;;;;;;5018661;28;20048;-60
2022/01/30 08:12:31;;;;;;;9.45;3.33;;;4.40;99.90;;;;;;5000676;28;20056;-60
2022/01/30 08:14:58;;;;;;;3.33;2.70;;;4.40;99.90;;;;;;4997808;28;20033;-60
2022/01/30 08:17:25;;;;;;;3.10;2.80;;;4.40;99.90;;;;;;5000700;28;20340;-60
2022/01/30 08:19:52;;;;;;;3.95;2.55;;;4.40;99.90;;;;;;5018259;28;20037;-59
2022/01/30 08:22:19;;;;;;;2.65;2.42;;;4.50;99.90;;;;;;5018122;28;20041;-60
2022/01/30 08:24:46;;;;;;;4.85;3.05;;;4.50;99.90;;;;;;5017332;28;20041;-59
2022/01/30 08:27:13;;;;;;;;;;;4.60;99.90;;;;;;5019257;28;20809;-60
2022/01/30 08:29:40;;;;;;;3.47;2.65;;;4.70;99.90;;;;;;5016296;28;19928;-60
2022/01/30 08:32:11;;;;;;;2.83;2.25;;;4.70;99.90;;;;;;5023810;28;20495;-54
2022/01/30 08:34:41;;;;;;;2.97;2.50;;;4.80;99.90;;;;;;5021917;28;20525;-57
2022/01/30 08:37:08;;;;;;;3.13;2.42;;;4.90;99.90;;;;;;5021431;28;20325;-57
2022/01/30 08:39:35;;;;;;;2.97;2.03;;;4.90;99.90;;;;;;5022596;28;20380;-56
2022/01/30 08:42:02;;;;;;;2.60;2.05;;;4.90;99.90;;;;;;5021456;28;20614;-56
2022/01/30 08:44:30;;;;;;;2.70;2.08;;;4.90;99.90;;;;;;5021897;28;20045;-57
2022/01/30 08:46:57;;;;;;;2.33;2.10;;;4.90;99.90;;;;;;5020938;28;20044;-56
2022/01/30 08:49:24;;;;;;;2.65;2.00;;;5.00;99.90;;;;;;5021354;28;20700;-56
2022/01/30 08:51:51;;;;;;;2.05;1.70;;;5.00;99.90;;;;;;5021891;28;20044;-56
2022/01/30 08:54:18;;;;;;;;;;;5.00;99.90;;;;;;5020414;28;20810;-56
2022/01/30 08:56:45;;;;;;;5.32;2.38;;;5.10;99.90;;;;;;5021309;28;19957;-57
2022/01/30 08:59:12;;;;;;;;;;;5.10;99.90;;;;;;5021833;28;20041;-57
2022/01/30 09:01:40;;;;;;;3.00;2.53;;;5.10;99.90;;;;;;5019903;28;19931;-57
2022/01/30 09:04:08;;;;;;;2.25;1.98;;;5.10;99.90;;;;;;5021899;28;20331;-58
2022/01/30 09:06:38;;;;;;;3.78;2.10;;;5.20;99.90;;;;;;5022447;28;20044;-59
2022/01/30 09:09:05;;;;;;;6.13;3.10;;;5.20;99.90;;;;;;5021917;28;20052;-58
2022/01/30 09:11:34;;;;;;;3.75;3.40;;;5.30;99.90;;;;;;5019754;28;20509;-57
2022/01/30 09:14:01;;;;;;;4.28;2.42;;;5.30;99.90;;;;;;5009821;28;20036;-56
2022/01/30 09:16:28;;;;;;;3.60;2.42;;;5.30;99.90;;;;;;4982499;28;20558;-56
2022/01/30 09:18:56;;;;;;;3.05;2.30;;;5.30;99.90;;;;;;5015228;28;20047;-56
2022/01/30 09:21:23;;;;;;;2.50;2.30;;;5.30;99.90;;;;;;5020076;28;20670;-56
2022/01/30 09:23:50;;;;;;;4.35;2.42;;;5.30;99.90;;;;;;5021263;28;20052;-56
2022/01/30 09:26:19;;;;;;;2.95;2.28;;;5.30;99.90;;;;;;5018318;28;20174;-56
2022/01/30 09:28:46;;;;;;;3.47;2.03;;;5.40;99.90;;;;;;5020941;28;20032;-57
2022/01/30 09:31:13;;;;;;;3.70;2.50;;;5.40;99.90;;;;;;5019045;28;20118;-56
2022/01/30 09:33:40;;;;;;;5.55;2.88;;;5.40;99.90;;;;;;5020262;28;20060;-56
2022/01/30 09:36:08;;;;;;;5.00;2.65;;;5.30;99.90;;;;;;5019368;28;20094;-57
2022/01/30 09:38:35;;;;;;;3.53;2.78;;;5.30;99.90;;;;;;5002078;28;20121;-56
2022/01/30 09:41:05;;;;;;;3.08;2.47;;;5.30;99.90;;;;;;5016913;28;20037;-57
2022/01/30 09:43:32;;;;;;;6.95;3.00;;;5.30;99.90;;;;;;5021755;28;20603;-57
2022/01/30 09:46:00;;;;;;;3.95;2.90;;;5.30;99.90;;;;;;5020922;28;20053;-57
2022/01/30 09:48:27;;;;;;;6.82;2.80;;;5.30;99.90;;;;;;5020716;28;20037;-59
2022/01/30 09:50:57;;;;;;;6.22;3.55;;;5.30;99.90;;;;;;5020288;28;20036;-53
2022/01/30 09:53:24;;;;;;;6.32;3.05;;;5.30;99.90;;;;;;5020247;28;20040;-54
2022/01/30 09:55:51;;;;;;;7.13;2.88;;;5.30;99.90;;;;;;5021070;28;20044;-58
2022/01/30 09:58:19;;;;;;;6.10;3.47;;;5.30;99.90;;;;;;5019180;28;20064;-57
2022/01/30 10:00:53;;;;;;;7.68;3.50;;;5.40;99.90;;;;;;5019500;28;20053;-57
2022/01/30 10:03:29;;;;;;;4.32;2.70;;;5.40;99.90;;;;;;5017156;28;20040;-57
2022/01/30 10:06:10;;;;;;;3.58;2.72;;;5.40;99.90;;;;;;5017742;28;20204;-58
2022/01/30 10:08:42;;;;;;;3.45;2.40;;;5.40;99.90;;;;;;5020604;28;20066;-57
2022/01/30 10:11:33;;;;;;;3.72;2.30;;;5.40;99.90;;;;;;5016102;28;20049;-57
2022/01/30 10:14:05;;;;;;;3.00;2.10;;;5.40;99.90;;;;;;5012845;28;20048;-57
2022/01/30 10:16:50;;;;;;;2.05;1.90;;;5.50;99.90;;;;;;5002177;28;20053;-58
2022/01/30 10:19:23;;;;;;;3.72;2.00;;;5.50;99.90;;;;;;5016668;28;20046;-59
2022/01/30 10:22:04;;;;;;;4.43;2.13;;;5.50;99.90;;;;;;5019735;28;20040;-65
2022/01/30 10:24:37;;;;;;;5.95;2.42;;;5.60;99.90;;;;;;5020129;28;20216;-59
2022/01/30 10:27:20;;;;;;;2.80;2.17;;;5.70;99.90;;;;;;5018097;28;20044;-64
2022/01/30 10:30:00;;;;;;;2.15;1.90;;;5.70;99.90;;;;;;5018522;28;20429;-66
2022/01/30 10:32:26;;;;;;;3.20;2.30;;;5.70;99.90;;;;;;5020728;28;20280;-62
2022/01/30 10:35:07;;;;;;;;;;;5.70;99.90;;;;;;5019465;28;20545;-62
2022/01/30 10:37:38;;;;;;;2.20;1.77;;;5.80;99.90;;;;;;5019285;28;20469;-64
2022/01/30 10:40:14;;;;;;;2.78;1.80;;;5.80;99.90;;;;;;5018470;28;20147;-66
2022/01/30 10:42:52;;;;;;;2.58;1.67;;;5.90;99.90;;;;;;5018314;28;20202;-60
2022/01/30 10:45:19;;;;;;;3.97;2.00;;;6.00;99.90;;;;;;5020124;28;20048;-59
2022/01/30 10:47:46;;;;;;;;;;;6.00;99.90;;;;;;5020020;28;20036;-56
2022/01/30 10:50:22;;;;;;;2.95;1.88;;;6.00;99.90;;;;;;5003839;28;19987;-58
2022/01/30 10:52:56;;;;;;;2.53;1.88;;;6.10;99.90;;;;;;5015451;28;20972;-58
2022/01/30 10:55:38;;;;;;;2.63;2.05;;;6.20;99.90;;;;;;5018371;28;20078;-59
2022/01/30 10:58:06;;;;;;;3.55;1.77;;;6.30;99.90;;;;;;5016756;28;20044;-57
2022/01/30 11:00:54;;;;;;;7.13;2.40;;;6.30;99.90;;;;;;4998552;28;20033;-58
2022/01/30 11:03:50;;;;;;;5.70;1.60;;;6.40;99.90;;;;;;4997912;28;20048;-58
2022/01/30 11:06:17;;;;;;;4.78;2.05;;;6.40;99.90;;;;;;4998735;28;20043;-57
2022/01/30 11:08:47;;;;;;;3.40;1.65;;;6.50;99.90;;;;;;5014197;28;20161;-61
2022/01/30 11:14:36;;;;;;;2.92;1.58;;;6.60;99.90;;;;;;5017411;28;20098;-57
2022/01/30 11:19:22;;;;;;;2.30;1.80;;;6.60;99.90;;;;;;5014388;28;20370;-58
2022/01/30 11:21:55;;;;;;;4.15;1.98;;;6.60;99.90;;;;;;5018952;28;20151;-57
2022/01/30 11:24:24;;;;;;;4.82;1.60;;;6.70;99.90;;;;;;5016564;28;20248;-58
2022/01/30 11:26:53;;;;;;;2.28;1.67;;;6.70;99.90;;;;;;5015831;28;20582;-57
2022/01/30 11:29:21;;;;;;;2.38;1.77;;;6.80;99.90;;;;;;5018989;28;20059;-57
2022/01/30 11:31:49;;;;;;;4.88;2.17;;;6.90;99.90;;;;;;5019109;28;20068;-56
2022/01/30 11:34:16;;;;;;;3.35;1.88;;;7.10;99.90;;;;;;5016004;28;20147;-56
2022/01/30 11:36:48;;;;;;;3.35;2.05;;;7.40;99.90;;;;;;5017976;28;20048;-56
2022/01/30 11:39:18;;;;;;;6.10;1.83;;;7.60;99.90;;;;;;5016318;28;20051;-59
2022/01/30 11:42:13;;;;;;;5.18;1.55;;;7.90;99.90;;;;;;5017774;28;20616;-58
2022/01/30 11:44:46;;;;;;;3.13;1.67;;;8.30;99.90;;;;;;5016005;28;20044;-58
2022/01/30 11:47:13;;;;;;;2.58;1.48;;;8.60;99.90;;;;;;5018886;28;20407;-58
2022/01/30 11:49:41;;;;;;;;;;;8.60;99.90;;;;;;5018588;28;20052;-58
2022/01/30 11:52:10;;;;;;;4.07;1.70;;;8.60;99.90;;;;;;5017280;28;20014;-58
2022/01/30 11:54:49;;;;;;;2.75;2.13;;;8.40;99.90;;;;;;5017619;28;20222;-58
2022/01/30 11:57:22;;;;;;;1.70;1.50;;;8.30;99.90;;;;;;5018175;28;20040;-58
2022/01/30 11:59:57;;;;;;;4.68;1.80;;;8.10;99.90;;;;;;5017239;28;20044;-57
2022/01/30 12:02:28;;;;;;;2.20;1.98;;;7.90;99.90;;;;;;5018091;28;20048;-58
2022/01/30 12:04:58;;;;;;;2.72;2.25;;;7.80;99.90;;;;;;5015189;28;20291;-58
2022/01/30 12:07:35;;;;;;;4.07;1.88;;;7.80;99.90;;;;;;5018866;28;20048;-58
2022/01/30 12:10:20;;;;;;;;;;;8.10;99.90;;;;;;5016642;28;20037;-58
2022/01/30 12:12:47;;;;;;;5.38;2.33;;;8.50;99.90;;;;;;5017727;28;20438;-58
2022/01/30 12:15:33;;;;;;;4.35;1.90;;;8.70;99.90;;;;;;5014478;28;20067;-58
2022/01/30 12:18:01;;;;;;;3.60;2.03;;;8.80;99.90;;;;;;5003768;28;20776;-58
2022/01/30 12:20:30;;;;;;;4.30;2.13;;;8.70;99.90;;;;;;5016859;28;20326;-58
2022/01/30 12:22:57;;;;;;;3.25;1.75;;;8.40;99.90;;;;;;5018792;28;20048;-58
2022/01/30 12:25:30;;;;;;;5.03;2.13;;;8.20;99.90;;;;;;5016876;28;20082;-58
2022/01/30 12:28:00;;;;;;;5.35;1.88;;;7.90;99.90;;;;;;5018498;28;20052;-58
2022/01/30 12:30:43;;;;;;;3.50;1.88;;;7.70;99.90;;;;;;5014926;28;20520;-58
2022/01/30 12:33:56;;;;;;;3.65;2.28;;;7.50;99.90;;;;;;5014961;28;20036;-55
2022/01/30 12:36:23;;;;;;;2.33;1.85;;;7.50;99.90;;;;;;4975864;28;20042;-55
2022/01/30 12:39:12;;;;;;;4.28;2.45;;;7.30;99.90;;;;;;4958025;28;20046;-55
2022/01/30 12:41:39;;;;;;;1.98;1.40;;;7.30;99.90;;;;;;5003704;28;20075;-55
2022/01/30 12:44:09;;;;;;;2.55;1.80;;;7.20;99.90;;;;;;5018368;28;20121;-55
2022/01/30 12:46:49;;;;;;;2.60;1.77;;;7.20;99.90;;;;;;5017341;28;20059;-55
2022/01/30 12:49:21;;;;;;;4.13;1.95;;;7.20;99.90;;;;;;5016513;28;20310;-55
2022/01/30 12:51:57;;;;;;;3.60;1.40;;;7.30;99.90;;;;;;5015116;28;20180;-56
2022/01/30 12:54:27;;;;;;;9.23;2.67;;;7.40;99.90;;;;;;5011020;28;20043;-56
2022/01/30 12:56:56;;;;;;;7.18;2.28;;;7.40;99.90;;;;;;5015323;28;20051;-55
2022/01/30 12:59:26;;;;;;;5.22;2.08;;;7.40;99.90;;;;;;5017391;28;20737;-56
2022/01/30 13:02:05;;;;;;;7.50;3.17;;;7.40;99.90;;;;;;5017010;28;20056;-55
2022/01/30 13:04:34;;;;;;;4.07;2.25;;;7.30;99.90;;;;;;5017071;28;20044;-61
2022/01/30 13:07:01;;;;;;;6.15;2.63;;;7.20;99.90;;;;;;5018294;28;20056;-61
2022/01/30 13:09:33;;;;;;;4.40;2.33;;;7.10;99.90;;;;;;5013405;28;20600;-56
2022/01/30 13:12:14;;;;;;;5.90;2.22;;;7.10;99.90;;;;;;5018099;28;20051;-57
2022/01/30 13:14:42;;;;;;;5.13;2.30;;;7.10;99.90;;;;;;5014665;28;20080;-56
2022/01/30 13:17:10;;;;;;;6.18;2.45;;;7.20;99.90;;;;;;5010766;28;20036;-57
2022/01/30 13:19:45;;;;;;;3.80;2.30;;;7.20;99.90;;;;;;5013224;28;20554;-57
2022/01/30 13:22:34;;;;;;;3.83;2.40;;;7.30;99.90;;;;;;5020414;28;20052;-56
2022/01/30 13:25:05;;;;;;;15.70;5.22;;;7.30;99.90;;;;;;5020990;28;20047;-57
2022/01/30 13:27:32;;;;;;;6.25;2.28;;;7.30;99.90;;;;;;5021839;28;20037;-57
2022/01/30 13:30:00;;;;;;;7.18;3.78;;;7.30;99.90;;;;;;5019425;28;20040;-57
2022/01/30 13:32:27;;;;;;;5.40;2.08;;;7.30;99.90;;;;;;5020889;28;20044;-57
2022/01/30 13:34:57;;;;;;;3.95;1.77;;;7.30;99.90;;;;;;5020445;28;20041;-56
2022/01/30 13:37:24;;;;;;;3.95;2.03;;;7.40;99.90;;;;;;5019547;28;20217;-57
2022/01/30 13:45:05;;;;;;;6.22;2.95;;;7.50;99.90;;;;;;5019567;28;20704;-58
2022/01/30 13:47:33;;;;;;;2.15;1.88;;;7.60;99.90;;;;;;5020818;28;20055;-57
2022/01/30 13:50:01;;;;;;;4.72;2.70;;;7.70;99.90;;;;;;5018011;28;20047;-57
2022/01/30 13:52:30;;;;;;;3.80;2.30;;;7.70;99.90;;;;;;5021226;28;20127;-57
2022/01/30 13:55:00;;;;;;;2.28;1.90;;;7.80;99.90;;;;;;5017952;28;20137;-57
2022/01/30 13:57:32;;;;;;;6.13;2.13;;;7.70;99.90;;;;;;5021453;28;20585;-56
2022/01/30 14:00:06;;;;;;;4.57;2.08;;;7.70;99.90;;;;;;5018826;28;20378;-57
2022/01/30 14:02:34;;;;;;;4.10;2.00;;;7.60;99.90;;;;;;5020045;28;20571;-58
2022/01/30 14:05:39;;;;;;;5.03;2.03;;;7.60;99.90;;;;;;5019480;28;21051;-57
2022/01/30 14:08:20;;;;;;;3.50;2.03;;;7.50;99.90;;;;;;5014875;28;20048;-57
2022/01/30 14:10:49;;;;;;;3.05;2.00;;;7.40;99.90;;;;;;5016650;28;20048;-57
2022/01/30 14:13:23;;;;;;;3.30;2.10;;;7.40;99.90;;;;;;5021179;28;20571;-57
2022/01/30 14:16:00;;;;;;;2.72;1.88;;;7.30;99.90;;;;;;5020684;28;20668;-56
2022/01/30 14:18:29;;;;;;;7.47;2.30;;;7.30;99.90;;;;;;5008403;28;20485;-57
2022/01/30 14:20:58;;;;;;;2.35;1.55;;;7.20;99.90;;;;;;5002618;28;20136;-56
2022/01/30 14:23:35;;;;;;;2.30;1.33;;;7.10;99.90;;;;;;4997588;28;20067;-56
2022/01/30 14:26:02;;;;;;;3.03;1.75;;;7.10;99.90;;;;;;4999933;28;20047;-57
2022/01/30 14:28:31;;;;;;;2.08;1.50;;;7.00;99.90;;;;;;5010311;28;20040;-57
2022/01/30 14:31:00;;;;;;;6.13;1.85;;;6.90;99.90;;;;;;5018516;28;20044;-57
2022/01/30 14:33:34;;;;;;;3.13;1.75;;;6.80;99.90;;;;;;5018376;28;20044;-58
2022/01/30 14:36:03;;;;;;;3.08;1.45;;;6.70;99.90;;;;;;5020160;28;20315;-58
2022/01/30 14:38:30;;;;;;;2.88;1.73;;;6.60;99.90;;;;;;5017539;28;20041;-58
2022/01/30 14:40:58;;;;;;;2.10;1.70;;;6.50;99.90;;;;;;5018231;28;20046;-59